createdAt,value
2019-05-26T00:00:13.785Z,3.80
2019-05-26T00:02:42.507Z,4.00
2019-05-26T00:05:11.508Z,4.05
2019-05-26T00:07:40.316Z,3.80
2019-05-26T00:10:09.375Z,4.20
2019-05-26T00:12:38.439Z,4.22
2019-05-26T00:15:07.678Z,3.98
2019-05-26T00:17:36.528Z,4.15
2019-05-26T00:20:07.064Z,4.03
2019-05-26T00:22:35.833Z,3.83
2019-05-26T00:25:07.486Z,4.20
2019-05-26T00:27:36.367Z,4.53
2019-05-26T00:30:06.911Z,3.67
2019-05-26T00:32:35.788Z,3.92
2019-05-26T00:35:08.844Z,3.47
2019-05-26T00:37:48.364Z,3.98
2019-05-26T00:40:08.611Z,4.50
2019-05-26T00:42:37.413Z,3.85
2019-05-26T00:45:08.392Z,4.60
2019-05-26T00:47:37.335Z,4.62
2019-05-26T00:50:07.520Z,4.22
2019-05-26T00:52:36.341Z,3.27
2019-05-26T00:55:06.847Z,3.55
2019-05-26T00:57:35.966Z,3.35
2019-05-26T01:00:08.564Z,3.17
2019-05-26T01:02:37.329Z,3.12
2019-05-26T01:05:08.271Z,3.42
2019-05-26T01:07:38.229Z,3.40
2019-05-26T01:10:08.651Z,3.20
2019-05-26T01:12:37.543Z,2.85
2019-05-26T01:15:07.053Z,3.60
2019-05-26T01:20:06.445Z,3.20
2019-05-26T01:22:35.220Z,3.40
2019-05-26T01:25:06.234Z,3.73
2019-05-26T01:27:34.991Z,3.12
2019-05-26T01:30:05.325Z,3.90
2019-05-26T01:32:34.304Z,3.60
2019-05-26T01:35:03.079Z,3.87
2019-05-26T01:37:32.355Z,4.37
2019-05-26T01:40:01.186Z,3.80
2019-05-26T01:42:29.966Z,3.77
2019-05-26T01:44:58.815Z,4.23
2019-05-26T01:47:27.656Z,4.62
2019-05-26T01:49:56.412Z,4.37
2019-05-26T01:52:25.165Z,4.97
2019-05-26T01:54:53.858Z,4.80
2019-05-26T01:57:22.571Z,4.90
2019-05-26T01:59:51.401Z,5.03
2019-05-26T02:02:26.158Z,5.55
2019-05-26T02:04:54.987Z,6.30
2019-05-26T02:07:23.805Z,6.75
2019-05-26T02:09:52.563Z,6.45
2019-05-26T02:12:21.394Z,6.60
2019-05-26T02:14:50.219Z,6.62
2019-05-26T02:17:18.927Z,7.17
2019-05-26T02:19:47.633Z,7.00
2019-05-26T02:22:16.396Z,7.37
2019-05-26T02:24:45.147Z,6.77
2019-05-26T02:27:13.966Z,8.03
2019-05-26T02:29:42.733Z,6.92
2019-05-26T02:32:11.560Z,7.43
2019-05-26T02:34:40.292Z,6.30
2019-05-26T02:37:09.111Z,6.67
2019-05-26T02:39:37.869Z,6.58
2019-05-26T02:42:06.762Z,6.42
2019-05-26T02:44:35.553Z,6.67
2019-05-26T02:47:04.830Z,5.73
2019-05-26T02:49:33.591Z,6.47
2019-05-26T02:52:02.397Z,5.53
2019-05-26T02:54:31.103Z,6.17
2019-05-26T02:56:59.868Z,4.93
2019-05-26T02:59:28.565Z,5.35
2019-05-26T03:02:03.537Z,6.00
2019-05-26T03:04:28.974Z,5.67
2019-05-26T03:06:58.429Z,5.87
2019-05-26T03:09:28.951Z,5.42
2019-05-26T03:11:59.366Z,5.90
2019-05-26T03:14:30.159Z,5.72
2019-05-26T03:17:01.887Z,5.25
2019-05-26T03:19:32.282Z,5.75
2019-05-26T03:22:02.593Z,4.90
2019-05-26T03:24:33.301Z,5.35
2019-05-26T03:27:02.262Z,5.58
2019-05-26T03:29:31.038Z,5.65
2019-05-26T03:31:59.962Z,5.87
2019-05-26T03:34:28.813Z,5.30
2019-05-26T03:36:57.606Z,6.20
2019-05-26T03:39:43.609Z,5.60
2019-05-26T03:41:56.760Z,5.45
2019-05-26T03:44:25.608Z,4.10
2019-05-26T03:46:54.374Z,6.15
2019-05-26T03:49:23.293Z,5.72
2019-05-26T03:51:52.056Z,6.35
2019-05-26T03:54:20.875Z,5.70
2019-05-26T03:56:49.624Z,5.80
2019-05-26T03:59:18.459Z,6.45
2019-05-26T04:01:47.207Z,5.40
2019-05-26T04:04:15.960Z,6.97
2019-05-26T04:06:44.931Z,6.10
2019-05-26T04:09:14.857Z,6.20
2019-05-26T04:11:43.623Z,6.30
2019-05-26T04:14:12.378Z,5.67
2019-05-26T04:16:41.081Z,6.92
2019-05-26T04:19:09.757Z,5.97
2019-05-26T04:21:38.520Z,5.57
2019-05-26T04:24:07.279Z,4.30
2019-05-26T04:26:36.026Z,5.10
2019-05-26T04:29:04.874Z,5.40
2019-05-26T04:31:33.560Z,5.47
2019-05-26T04:34:02.335Z,4.87
2019-05-26T04:36:31.143Z,5.17
2019-05-26T04:38:59.912Z,5.35
2019-05-26T04:41:28.675Z,4.72
2019-05-26T04:43:57.445Z,4.90
2019-05-26T04:46:27.898Z,5.28
2019-05-26T04:48:56.666Z,5.17
2019-05-26T04:51:25.399Z,5.17
2019-05-26T04:53:54.147Z,4.83
2019-05-26T04:56:22.958Z,6.20
2019-05-26T04:58:51.708Z,5.03
2019-05-26T05:01:20.469Z,5.07
2019-05-26T05:03:49.327Z,4.92
2019-05-26T05:06:18.141Z,5.50
2019-05-26T05:08:46.861Z,5.17
2019-05-26T05:11:15.688Z,5.60
2019-05-26T05:13:44.499Z,5.67
2019-05-26T05:16:16.170Z,5.85
2019-05-26T05:18:44.927Z,5.33
2019-05-26T05:21:21.639Z,5.47
2019-05-26T05:23:50.409Z,5.70
2019-05-26T05:26:26.505Z,6.00
2019-05-26T05:29:00.525Z,5.58
2019-05-26T05:31:37.038Z,5.92
2019-05-26T05:34:05.791Z,5.70
2019-05-26T05:36:36.279Z,5.75
2019-05-26T05:39:10.024Z,6.03
2019-05-26T05:41:38.740Z,6.58
2019-05-26T05:44:07.494Z,6.75
2019-05-26T05:46:36.343Z,6.05
2019-05-26T05:49:05.301Z,5.90
2019-05-26T05:51:34.121Z,4.40
2019-05-26T05:54:03.011Z,6.58
2019-05-26T05:56:31.821Z,6.30
2019-05-26T05:59:00.608Z,7.03
2019-05-26T06:01:29.501Z,5.15
2019-05-26T06:03:58.255Z,5.78
2019-05-26T06:06:27.107Z,6.28
2019-05-26T06:08:55.959Z,6.25
2019-05-26T06:11:25.835Z,6.00
2019-05-26T06:13:54.557Z,6.65
2019-05-26T06:16:23.396Z,5.92
2019-05-26T06:18:52.250Z,6.50
2019-05-26T06:21:21.062Z,6.53
2019-05-26T06:23:49.899Z,5.67
2019-05-26T06:26:18.724Z,6.15
2019-05-26T06:28:47.504Z,6.75
2019-05-26T06:31:16.311Z,6.33
2019-05-26T06:33:45.148Z,6.53
2019-05-26T06:36:14.000Z,6.40
2019-05-26T06:38:43.822Z,5.87
2019-05-26T06:41:12.687Z,5.53
2019-05-26T06:43:42.992Z,5.25
2019-05-26T06:46:11.789Z,5.00
2019-05-26T06:48:40.612Z,4.30
2019-05-26T06:51:09.525Z,5.03
2019-05-26T06:53:41.100Z,5.08
2019-05-26T06:56:11.935Z,6.40
2019-05-26T06:58:42.232Z,4.78
2019-05-26T07:01:12.326Z,4.67
2019-05-26T07:03:43.832Z,4.83
2019-05-26T07:06:12.685Z,6.17
2019-05-26T07:08:41.549Z,5.25
2019-05-26T07:11:11.172Z,5.08
2019-05-26T07:13:40.870Z,4.92
2019-05-26T07:16:09.684Z,5.20
2019-05-26T07:18:42.948Z,4.90
2019-05-26T07:21:09.075Z,4.75
2019-05-26T07:23:37.938Z,4.78
2019-05-26T07:26:06.752Z,3.37
2019-05-26T07:28:35.628Z,4.28
2019-05-26T07:31:04.431Z,4.30
2019-05-26T07:33:33.352Z,3.67
2019-05-26T07:36:02.215Z,3.85
2019-05-26T07:38:30.895Z,4.70
2019-05-26T07:40:59.742Z,4.00
2019-05-26T07:43:28.575Z,4.53
2019-05-26T07:45:57.487Z,4.40
2019-05-26T07:48:26.363Z,4.67
2019-05-26T07:50:55.172Z,5.03
2019-05-26T07:53:23.901Z,3.90
2019-05-26T07:55:52.836Z,4.40
2019-05-26T07:58:21.583Z,4.25
2019-05-26T08:00:50.423Z,4.03
2019-05-26T08:03:19.181Z,3.85
2019-05-26T08:05:48.001Z,3.55
2019-05-26T08:08:16.811Z,3.40
2019-05-26T08:10:45.491Z,2.47
2019-05-26T08:13:16.063Z,3.22
2019-05-26T08:15:44.833Z,3.58
2019-05-26T08:18:13.668Z,3.70
2019-05-26T08:20:43.534Z,2.58
2019-05-26T08:23:12.326Z,2.85
2019-05-26T08:25:41.113Z,2.72
2019-05-26T08:28:09.942Z,3.50
2019-05-26T08:30:38.692Z,3.40
2019-05-26T08:33:07.530Z,2.65
2019-05-26T08:35:36.315Z,2.90
2019-05-26T08:38:05.151Z,1.95
2019-05-26T08:40:34.004Z,2.87
2019-05-26T08:43:02.887Z,2.83
2019-05-26T08:45:31.620Z,3.40
2019-05-26T08:48:00.481Z,2.55
2019-05-26T08:50:34.124Z,1.52
2019-05-26T08:53:01.424Z,3.02
2019-05-26T08:55:30.332Z,2.80
2019-05-26T08:57:59.158Z,3.02
2019-05-26T09:00:28.038Z,3.67
2019-05-26T09:02:57.076Z,3.25
2019-05-26T09:05:25.906Z,3.50
2019-05-26T09:07:54.758Z,3.40
2019-05-26T09:10:23.562Z,3.77
2019-05-26T09:13:00.849Z,4.12
2019-05-26T09:15:23.628Z,3.15
2019-05-26T09:17:52.519Z,2.83
2019-05-26T09:20:21.701Z,3.12
2019-05-26T09:22:50.522Z,3.10
2019-05-26T09:25:19.541Z,2.65
2019-05-26T09:27:48.312Z,3.47
2019-05-26T09:30:18.263Z,3.40
2019-05-26T09:32:47.028Z,3.15
2019-05-26T09:35:16.809Z,2.65
2019-05-26T09:37:45.564Z,3.90
2019-05-26T09:40:14.708Z,3.35
2019-05-26T09:42:43.659Z,3.35
2019-05-26T09:45:25.914Z,3.77
2019-05-26T09:47:54.816Z,3.95
2019-05-26T09:50:23.771Z,3.15
2019-05-26T09:52:52.693Z,2.70
2019-05-26T09:55:21.726Z,3.22
2019-05-26T09:57:50.610Z,2.80
2019-05-26T10:00:19.432Z,3.65
2019-05-26T10:02:48.271Z,3.83
2019-05-26T10:05:17.093Z,3.95
2019-05-26T10:07:46.507Z,3.00
2019-05-26T10:10:16.092Z,3.92
2019-05-26T10:12:44.844Z,2.95
2019-05-26T10:15:16.058Z,3.40
2019-05-26T10:17:46.283Z,3.55
2019-05-26T10:20:19.884Z,3.60
2019-05-26T10:22:54.597Z,3.30
2019-05-26T10:25:32.779Z,3.17
2019-05-26T10:28:09.906Z,3.15
2019-05-26T10:30:39.056Z,2.75
2019-05-26T10:33:07.822Z,4.17
2019-05-26T10:35:36.653Z,4.28
2019-05-26T10:38:05.620Z,4.35
2019-05-26T10:40:34.713Z,3.60
2019-05-26T10:43:03.472Z,3.52
2019-05-26T10:45:34.440Z,4.15
2019-05-26T10:48:06.397Z,5.53
2019-05-26T10:50:49.727Z,3.62
2019-05-26T10:53:36.616Z,3.65
2019-05-26T10:56:18.869Z,2.20
2019-05-26T10:58:59.833Z,2.10
2019-05-26T11:01:40.005Z,2.30
2019-05-26T11:04:21.632Z,2.20
2019-05-26T11:07:14.629Z,2.30
2019-05-26T11:09:59.329Z,2.58
2019-05-26T11:12:53.835Z,2.60
2019-05-26T11:15:42.406Z,2.85
2019-05-26T11:18:41.002Z,3.70
2019-05-26T11:21:20.010Z,3.17
2019-05-26T11:24:02.641Z,2.62
2019-05-26T11:26:39.686Z,2.37
2019-05-26T11:29:10.054Z,3.52
2019-05-26T11:31:40.341Z,2.62
2019-05-26T11:34:09.190Z,1.80
2019-05-26T11:36:38.782Z,2.85
2019-05-26T11:41:36.047Z,1.67
2019-05-26T11:44:17.093Z,2.30
2019-05-26T11:46:35.453Z,3.05
2019-05-26T11:49:04.283Z,2.80
2019-05-26T11:51:33.159Z,2.65
2019-05-26T11:54:01.914Z,2.80
2019-05-26T11:56:30.662Z,1.35
2019-05-26T11:58:59.405Z,2.70
2019-05-26T12:01:28.186Z,1.80
2019-05-26T12:03:57.108Z,2.17
2019-05-26T12:06:25.981Z,2.42
2019-05-26T12:08:54.794Z,2.37
2019-05-26T12:11:25.367Z,2.08
2019-05-26T12:13:54.136Z,1.30
2019-05-26T12:16:23.043Z,2.25
2019-05-26T12:18:55.087Z,2.33
2019-05-26T12:21:24.021Z,2.27
2019-05-26T12:23:55.168Z,2.65
2019-05-26T12:26:25.908Z,2.42
2019-05-26T12:29:06.010Z,1.70
2019-05-26T12:31:54.914Z,1.85
2019-05-26T12:34:29.676Z,1.42
2019-05-26T12:37:00.388Z,1.82
2019-05-26T12:39:30.264Z,1.60
2019-05-26T12:41:59.089Z,1.82
2019-05-26T12:44:27.863Z,1.70
2019-05-26T12:46:56.649Z,1.52
2019-05-26T12:49:27.687Z,2.00
2019-05-26T12:51:55.879Z,2.22
2019-05-26T12:54:25.880Z,2.00
2019-05-26T12:56:54.749Z,2.22
2019-05-26T12:59:27.015Z,1.95
2019-05-26T13:01:55.890Z,1.80
2019-05-26T13:04:24.749Z,1.87
2019-05-26T13:06:53.444Z,3.42
2019-05-26T13:09:23.692Z,4.17
2019-05-26T13:11:52.440Z,3.22
2019-05-26T13:14:23.213Z,1.40
2019-05-26T13:16:53.674Z,2.65
2019-05-26T13:19:25.629Z,1.77
2019-05-26T13:21:54.371Z,1.50
2019-05-26T13:24:26.995Z,1.85
2019-05-26T13:26:55.580Z,2.02
2019-05-26T13:29:27.178Z,1.98
2019-05-26T13:31:59.306Z,2.17
2019-05-26T13:34:31.281Z,2.75
2019-05-26T13:37:02.998Z,2.25
2019-05-26T13:39:32.018Z,2.10
2019-05-26T13:42:01.341Z,2.90
2019-05-26T13:44:30.672Z,1.67
2019-05-26T13:46:59.495Z,1.50
2019-05-26T13:49:29.034Z,1.92
2019-05-26T13:56:55.181Z,1.90
2019-05-26T13:59:24.517Z,2.22
2019-05-26T14:01:53.728Z,1.47
2019-05-26T14:04:22.471Z,1.65
2019-05-26T14:06:52.047Z,2.05
2019-05-26T14:11:50.490Z,2.70
2019-05-26T14:14:19.648Z,2.65
2019-05-26T14:16:49.880Z,2.50
2019-05-26T14:19:20.637Z,3.20
2019-05-26T14:21:49.312Z,3.50
2019-05-26T14:24:19.201Z,2.42
2019-05-26T14:26:47.967Z,3.87
2019-05-26T14:29:16.811Z,3.05
2019-05-26T14:31:45.776Z,2.72
2019-05-26T14:34:14.623Z,3.80
2019-05-26T14:36:43.395Z,3.20
2019-05-26T14:39:12.411Z,3.42
2019-05-26T14:41:41.109Z,3.10
2019-05-26T14:44:09.991Z,4.83
2019-05-26T14:46:38.709Z,2.37
2019-05-26T14:49:07.479Z,3.25
2019-05-26T14:51:36.170Z,3.25
2019-05-26T14:54:05.632Z,3.10
2019-05-26T14:56:34.492Z,2.00
2019-05-26T14:59:04.409Z,2.37
2019-05-26T15:01:33.158Z,2.90
2019-05-26T15:04:02.221Z,1.67
2019-05-26T15:06:32.320Z,2.12
2019-05-26T15:09:01.256Z,2.00
2019-05-26T15:11:29.990Z,2.42
2019-05-26T15:14:00.458Z,1.95
2019-05-26T15:16:29.306Z,2.15
2019-05-26T15:18:58.070Z,2.95
2019-05-26T15:21:29.714Z,2.67
2019-05-26T15:23:58.470Z,2.47
2019-05-26T15:26:27.163Z,2.30
2019-05-26T15:28:55.820Z,2.03
2019-05-26T15:31:24.575Z,5.20
2019-05-26T15:33:53.334Z,2.33
2019-05-26T15:36:22.144Z,2.63
2019-05-26T15:38:50.771Z,2.83
2019-05-26T15:41:22.327Z,2.20
2019-05-26T15:43:52.393Z,3.00
2019-05-26T15:46:25.499Z,2.10
2019-05-26T15:48:53.993Z,2.12
2019-05-26T15:51:22.746Z,2.70
2019-05-26T15:53:51.428Z,1.82
2019-05-26T15:56:22.028Z,2.37
2019-05-26T15:58:50.739Z,2.47
2019-05-26T16:01:21.555Z,1.67
2019-05-26T16:03:51.439Z,2.10
2019-05-26T16:06:20.263Z,2.05
2019-05-26T16:08:49.072Z,1.75
2019-05-26T16:11:17.807Z,2.05
2019-05-26T16:13:47.866Z,1.80
2019-05-26T16:16:17.892Z,1.50
2019-05-26T16:18:46.639Z,1.70
2019-05-26T16:21:27.712Z,2.03
2019-05-26T16:23:47.243Z,1.70
2019-05-26T16:26:15.993Z,2.00
2019-05-26T16:28:44.746Z,1.77
2019-05-26T16:31:16.273Z,2.58
2019-05-26T16:33:45.138Z,2.45
2019-05-26T16:36:13.821Z,2.62
2019-05-26T16:38:44.607Z,2.30
2019-05-26T16:41:14.082Z,2.55
2019-05-26T16:43:42.903Z,2.47
2019-05-26T16:46:11.802Z,2.52
2019-05-26T16:48:40.738Z,1.92
2019-05-26T16:51:11.502Z,2.40
2019-05-26T16:53:42.240Z,2.72
2019-05-26T16:56:14.491Z,2.75
2019-05-26T16:58:46.458Z,2.60
2019-05-26T17:01:21.140Z,2.90
2019-05-26T17:03:53.406Z,1.85
2019-05-26T17:06:24.007Z,2.00
2019-05-26T17:08:54.083Z,2.10
2019-05-26T17:11:22.848Z,2.17
2019-05-26T17:13:53.583Z,2.47
2019-05-26T17:16:25.305Z,1.50
2019-05-26T17:18:57.435Z,2.52
2019-05-26T17:21:27.065Z,1.85
2019-05-26T17:26:24.256Z,1.70
2019-05-26T17:28:52.987Z,1.80
2019-05-26T17:31:23.715Z,2.00
2019-05-26T17:33:53.846Z,1.50
2019-05-26T17:36:22.680Z,1.77
2019-05-26T17:38:51.516Z,1.90
2019-05-26T17:41:22.139Z,1.75
2019-05-26T17:43:53.856Z,1.45
2019-05-26T17:46:22.708Z,1.17
2019-05-26T17:48:51.475Z,1.17
2019-05-26T17:51:20.301Z,1.37
2019-05-26T17:53:52.624Z,2.30
2019-05-26T17:56:23.863Z,1.57
2019-05-26T17:58:54.081Z,1.90
2019-05-26T18:01:26.869Z,1.90
2019-05-26T18:03:56.236Z,1.72
2019-05-26T18:06:26.867Z,1.95
2019-05-26T18:08:58.121Z,1.75
2019-05-26T18:11:27.885Z,2.20
2019-05-26T18:13:58.548Z,2.08
2019-05-26T18:16:30.960Z,2.42
2019-05-26T18:18:59.838Z,2.27
2019-05-26T18:21:29.869Z,2.83
2019-05-26T18:23:59.577Z,2.25
2019-05-26T18:26:30.247Z,2.75
2019-05-26T18:28:58.994Z,2.27
2019-05-26T18:31:30.258Z,2.90
2019-05-26T18:33:59.566Z,2.52
2019-05-26T18:36:29.365Z,3.30
2019-05-26T18:38:58.288Z,2.85
2019-05-26T18:41:28.506Z,1.82
2019-05-26T18:43:57.550Z,1.20
2019-05-26T18:46:26.277Z,1.98
2019-05-26T18:48:55.054Z,2.57
2019-05-26T18:51:24.085Z,1.60
2019-05-26T18:53:54.730Z,2.40
2019-05-26T18:56:23.441Z,2.62
2019-05-26T18:58:52.199Z,2.97
2019-05-26T19:01:21.051Z,3.65
2019-05-26T19:03:49.946Z,2.70
2019-05-26T19:06:18.915Z,2.87
2019-05-26T19:08:51.037Z,2.83
2019-05-26T19:11:25.016Z,2.17
2019-05-26T19:13:53.724Z,3.05
2019-05-26T19:16:22.544Z,1.43
2019-05-26T19:18:51.296Z,2.67
2019-05-26T19:21:19.907Z,3.10
2019-05-26T19:23:48.779Z,3.42
2019-05-26T19:26:17.528Z,3.35
2019-05-26T19:28:46.279Z,3.77
2019-05-26T19:31:15.053Z,4.03
2019-05-26T19:33:43.817Z,2.90
2019-05-26T19:36:12.654Z,3.27
2019-05-26T19:38:41.489Z,2.87
2019-05-26T19:41:10.174Z,3.45
2019-05-26T19:43:39.014Z,2.67
2019-05-26T19:46:07.836Z,3.10
2019-05-26T19:48:37.444Z,2.98
2019-05-26T19:51:06.423Z,2.40
2019-05-26T19:53:35.250Z,2.02
2019-05-26T19:56:04.105Z,2.37
2019-05-26T19:58:32.927Z,2.27
2019-05-26T20:01:01.687Z,2.30
2019-05-26T20:03:30.457Z,2.80
2019-05-26T20:05:59.279Z,2.70
2019-05-26T20:08:28.134Z,2.10
2019-05-26T20:10:56.979Z,2.35
2019-05-26T20:13:27.125Z,3.00
2019-05-26T20:15:55.943Z,2.33
2019-05-26T20:18:24.713Z,2.75
2019-05-26T20:20:53.461Z,3.00
2019-05-26T20:23:22.212Z,2.83
2019-05-26T20:25:50.978Z,2.80
2019-05-26T20:28:19.740Z,2.83
2019-05-26T20:30:51.428Z,2.90
2019-05-26T20:33:20.385Z,2.55
2019-05-26T20:35:49.099Z,2.75
2019-05-26T20:38:17.885Z,3.23
2019-05-26T20:40:46.716Z,3.10
2019-05-26T20:43:15.542Z,2.52
2019-05-26T20:45:44.309Z,2.60
2019-05-26T20:48:13.106Z,2.45
2019-05-26T20:50:41.808Z,1.77
2019-05-26T20:53:10.619Z,3.20
2019-05-26T20:55:39.498Z,3.30
2019-05-26T20:58:12.132Z,3.72
2019-05-26T21:00:40.928Z,3.40
2019-05-26T21:03:09.734Z,3.47
2019-05-26T21:05:38.503Z,3.62
2019-05-26T21:08:07.398Z,4.13
2019-05-26T21:10:37.648Z,3.65
2019-05-26T21:13:06.645Z,3.22
2019-05-26T21:15:35.354Z,4.25
2019-05-26T21:18:04.223Z,4.67
2019-05-26T21:20:33.077Z,5.10
2019-05-26T21:23:01.835Z,4.67
2019-05-26T21:25:30.613Z,3.10
2019-05-26T21:27:59.433Z,4.78
2019-05-26T21:30:28.176Z,5.12
2019-05-26T21:32:57.130Z,5.20
2019-05-26T21:35:25.927Z,4.92
2019-05-26T21:37:54.708Z,5.20
2019-05-26T21:40:23.477Z,5.60
2019-05-26T21:42:52.308Z,5.25
2019-05-26T21:45:21.139Z,6.33
2019-05-26T21:47:49.975Z,6.10
2019-05-26T21:50:19.029Z,5.87
2019-05-26T21:52:47.862Z,6.03
2019-05-26T21:55:17.100Z,6.05
2019-05-26T21:57:45.845Z,5.85
2019-05-26T22:00:16.644Z,6.27
2019-05-26T22:02:45.473Z,6.25
2019-05-26T22:05:14.796Z,5.83
2019-05-26T22:07:43.661Z,6.42
2019-05-26T22:10:13.019Z,6.25
2019-05-26T22:12:41.776Z,6.00
2019-05-26T22:15:10.741Z,5.80
2019-05-26T22:17:39.499Z,6.03
2019-05-26T22:20:08.519Z,6.20
2019-05-26T22:22:37.271Z,5.97
2019-05-26T22:25:07.769Z,5.60
2019-05-26T22:27:36.497Z,5.50
2019-05-26T22:30:10.687Z,5.50
2019-05-26T22:32:39.453Z,6.47
2019-05-26T22:35:08.660Z,5.60
2019-05-26T22:37:37.536Z,6.80
2019-05-26T22:40:09.565Z,6.37
2019-05-26T22:42:38.388Z,5.97
2019-05-26T22:45:08.316Z,5.75
2019-05-26T22:47:37.096Z,6.90
2019-05-26T22:50:10.848Z,2.77
2019-05-26T22:52:39.596Z,5.55
2019-05-26T22:55:08.900Z,6.77
2019-05-26T22:57:37.787Z,6.85
2019-05-26T23:00:10.908Z,6.12
2019-05-26T23:02:39.756Z,5.75
2019-05-26T23:05:08.959Z,6.30
2019-05-26T23:07:37.796Z,6.55
2019-05-26T23:10:07.646Z,7.00
2019-05-26T23:12:36.470Z,6.83
2019-05-26T23:15:08.831Z,6.80
2019-05-26T23:17:37.770Z,5.58
2019-05-26T23:20:07.308Z,7.28
2019-05-26T23:22:36.133Z,7.40
2019-05-26T23:25:06.727Z,6.10
2019-05-26T23:27:35.553Z,6.33
2019-05-26T23:30:08.720Z,7.80
2019-05-26T23:32:37.527Z,7.47
2019-05-26T23:35:06.887Z,6.42
2019-05-26T23:37:35.812Z,8.00
2019-05-26T23:40:06.670Z,7.42
2019-05-26T23:42:35.448Z,8.20
2019-05-26T23:45:06.827Z,8.73
2019-05-26T23:47:35.591Z,8.68
2019-05-26T23:50:06.119Z,9.68
2019-05-26T23:52:34.920Z,9.93
2019-05-26T23:55:05.270Z,10.58
2019-05-26T23:57:34.092Z,10.63
